createdAt,value
2018-03-04T00:01:03.098Z,59.45
2018-03-04T00:03:32.509Z,72.32
2018-03-04T00:06:01.788Z,60.78
2018-03-04T00:08:31.093Z,57.42
2018-03-04T00:11:00.427Z,67.15
2018-03-04T00:13:30.907Z,56.40
2018-03-04T00:16:00.172Z,57.28
2018-03-04T00:18:29.463Z,72.68
2018-03-04T00:20:58.778Z,57.00
2018-03-04T00:23:28.052Z,66.87
2018-03-04T00:25:57.392Z,56.80
2018-03-04T00:28:26.640Z,55.33
2018-03-04T00:30:55.987Z,66.93
2018-03-04T00:33:25.280Z,68.93
2018-03-04T00:35:54.588Z,66.53
2018-03-04T00:38:24.621Z,63.63
2018-03-04T00:40:53.935Z,61.90
2018-03-04T00:43:23.975Z,62.30
2018-03-04T00:45:53.288Z,67.62
2018-03-04T00:48:22.607Z,63.00
2018-03-04T00:50:51.960Z,56.80
2018-03-04T00:53:21.236Z,70.62
2018-03-04T00:55:50.985Z,70.80
2018-03-04T00:58:20.262Z,67.90
2018-03-04T01:00:49.537Z,70.12
2018-03-04T01:03:19.626Z,71.45
2018-03-04T01:05:48.894Z,74.22
2018-03-04T01:08:18.209Z,62.70
2018-03-04T01:10:48.250Z,68.37
2018-03-04T01:13:17.582Z,68.40
2018-03-04T01:15:46.882Z,59.90
2018-03-04T01:18:16.608Z,60.45
2018-03-04T01:20:45.909Z,73.75
2018-03-04T01:23:15.217Z,60.65
2018-03-04T01:25:44.565Z,60.55
2018-03-04T01:28:13.891Z,61.53
2018-03-04T01:30:43.244Z,62.22
2018-03-04T01:33:12.541Z,72.85
2018-03-04T01:35:41.847Z,71.70
2018-03-04T01:38:11.407Z,62.95
2018-03-04T01:40:40.678Z,57.58
2018-03-04T01:43:09.967Z,60.88
2018-03-04T01:45:39.342Z,59.40
2018-03-04T01:48:08.676Z,69.00
2018-03-04T01:50:37.987Z,60.92
2018-03-04T01:53:07.308Z,46.25
2018-03-04T01:55:36.627Z,65.10
2018-03-04T01:58:05.937Z,68.32
2018-03-04T02:00:35.287Z,55.45
2018-03-04T02:03:04.570Z,65.80
2018-03-04T02:05:33.883Z,63.05
2018-03-04T02:08:03.172Z,58.08
2018-03-04T02:10:32.493Z,62.20
2018-03-04T02:13:01.795Z,60.30
2018-03-04T02:15:31.107Z,62.78
2018-03-04T02:18:00.403Z,63.15
2018-03-04T02:20:29.760Z,62.83
2018-03-04T02:22:59.052Z,61.00
2018-03-04T02:25:29.284Z,65.00
2018-03-04T02:27:58.660Z,62.95
2018-03-04T02:30:27.968Z,72.78
2018-03-04T02:32:57.233Z,69.50
2018-03-04T02:35:26.530Z,56.25
2018-03-04T02:37:55.833Z,66.55
2018-03-04T02:40:25.141Z,63.38
2018-03-04T02:42:54.472Z,69.37
2018-03-04T02:45:23.763Z,69.12
2018-03-04T02:47:53.070Z,53.58
2018-03-04T02:50:22.403Z,57.15
2018-03-04T02:52:51.743Z,62.62
2018-03-04T02:55:21.067Z,65.47
2018-03-04T02:57:50.342Z,69.47
2018-03-04T03:00:19.643Z,67.40
2018-03-04T03:02:48.923Z,65.93
2018-03-04T03:05:19.119Z,60.20
2018-03-04T03:07:48.416Z,58.00
2018-03-04T03:10:17.795Z,65.87
2018-03-04T03:12:47.825Z,60.28
2018-03-04T03:15:17.892Z,69.72
2018-03-04T03:17:47.184Z,68.60
2018-03-04T03:20:16.500Z,78.18
2018-03-04T03:22:45.767Z,70.28
2018-03-04T03:25:15.061Z,61.13
2018-03-04T03:27:44.336Z,66.12
2018-03-04T03:30:13.661Z,65.70
2018-03-04T03:32:42.944Z,71.57
2018-03-04T03:35:12.288Z,66.60
2018-03-04T03:37:41.555Z,74.60
2018-03-04T03:40:10.916Z,71.78
2018-03-04T03:42:40.231Z,58.33
2018-03-04T03:45:09.574Z,66.87
2018-03-04T03:47:38.911Z,61.80
2018-03-04T03:50:08.219Z,79.45
2018-03-04T03:52:38.278Z,58.72
2018-03-04T03:55:07.601Z,71.55
2018-03-04T03:57:36.959Z,74.85
2018-03-04T04:00:06.602Z,55.17
2018-03-04T04:02:36.006Z,70.90
2018-03-04T04:05:05.300Z,69.72
2018-03-04T04:07:34.596Z,64.22
2018-03-04T04:10:03.938Z,67.30
2018-03-04T04:12:34.204Z,66.55
2018-03-04T04:15:04.271Z,67.95
2018-03-04T04:17:33.580Z,68.03
2018-03-04T04:20:02.876Z,80.82
2018-03-04T04:22:32.541Z,66.32
2018-03-04T04:25:02.197Z,65.03
2018-03-04T04:27:31.532Z,62.05
2018-03-04T04:30:00.891Z,67.80
2018-03-04T04:32:30.289Z,72.78
2018-03-04T04:34:59.621Z,64.47
2018-03-04T04:37:28.912Z,73.25
2018-03-04T04:39:58.176Z,73.25
2018-03-04T04:42:27.783Z,72.28
2018-03-04T04:44:57.052Z,63.45
2018-03-04T04:47:26.333Z,68.68
2018-03-04T04:49:55.606Z,70.57
2018-03-04T04:52:24.891Z,62.95
2018-03-04T04:54:54.562Z,69.32
2018-03-04T04:57:23.864Z,67.65
2018-03-04T04:59:53.128Z,65.30
2018-03-04T05:02:22.440Z,66.72
2018-03-04T05:04:51.868Z,78.62
2018-03-04T05:07:21.143Z,74.25
2018-03-04T05:09:50.722Z,62.25
2018-03-04T05:12:20.819Z,70.28
2018-03-04T05:14:50.536Z,63.33
2018-03-04T05:17:19.838Z,81.35
2018-03-04T05:19:49.295Z,63.47
2018-03-04T05:22:19.290Z,65.20
2018-03-04T05:24:48.568Z,57.00
2018-03-04T05:27:17.976Z,60.85
2018-03-04T05:29:47.441Z,71.53
2018-03-04T05:32:16.739Z,64.70
2018-03-04T05:34:46.039Z,73.18
2018-03-04T05:37:15.651Z,61.88
2018-03-04T05:39:44.976Z,61.33
2018-03-04T05:42:14.294Z,73.07
2018-03-04T05:44:43.596Z,72.30
2018-03-04T05:47:12.928Z,69.22
2018-03-04T05:49:42.202Z,71.62
2018-03-04T05:52:11.557Z,74.90
2018-03-04T05:54:40.823Z,75.97
2018-03-04T05:57:10.996Z,71.30
2018-03-04T05:59:40.295Z,76.53
2018-03-04T06:02:09.611Z,77.18
2018-03-04T06:04:38.979Z,64.35
2018-03-04T06:07:08.319Z,63.65
2018-03-04T06:09:37.624Z,63.22
2018-03-04T06:12:06.961Z,75.60
2018-03-04T06:14:39.767Z,78.95
2018-03-04T06:17:09.082Z,68.57
2018-03-04T06:19:39.188Z,71.78
2018-03-04T06:22:08.505Z,76.25
2018-03-04T06:24:37.876Z,77.93
2018-03-04T06:27:07.976Z,61.58
2018-03-04T06:29:37.318Z,67.15
2018-03-04T06:32:06.638Z,67.45
2018-03-04T06:34:35.912Z,73.05
2018-03-04T06:37:05.584Z,71.95
2018-03-04T06:39:35.027Z,75.85
2018-03-04T06:42:04.307Z,68.37
2018-03-04T06:44:33.603Z,75.93
2018-03-04T06:47:03.675Z,77.68
2018-03-04T06:49:39.108Z,71.03
2018-03-04T06:52:08.415Z,74.55
2018-03-04T06:54:37.694Z,69.62
2018-03-04T06:57:07.277Z,65.28
2018-03-04T06:59:36.542Z,75.47
2018-03-04T07:02:05.814Z,68.47
2018-03-04T07:04:35.143Z,66.22
2018-03-04T07:07:05.332Z,62.88
2018-03-04T07:09:35.057Z,75.15
2018-03-04T07:14:38.881Z,76.40
2018-03-04T07:17:08.361Z,76.78
2018-03-04T07:19:39.592Z,69.20
2018-03-04T07:22:08.922Z,68.50
2018-03-04T07:24:38.275Z,74.85
2018-03-04T07:27:07.919Z,77.28
2018-03-04T07:29:37.291Z,77.45
2018-03-04T07:32:06.874Z,67.65
2018-03-04T07:34:36.175Z,70.43
2018-03-04T07:37:05.708Z,74.25
2018-03-04T07:39:35.949Z,63.87
2018-03-04T07:42:05.312Z,70.20
2018-03-04T07:44:34.606Z,73.50
2018-03-04T07:47:04.634Z,81.40
2018-03-04T07:49:34.710Z,69.40
2018-03-04T07:52:04.076Z,68.07
2018-03-04T07:54:33.528Z,73.70
2018-03-04T07:57:02.823Z,73.50
2018-03-04T07:59:32.159Z,75.78
2018-03-04T08:02:01.404Z,77.97
2018-03-04T08:04:30.781Z,66.55
2018-03-04T08:07:00.008Z,78.97
2018-03-04T08:09:29.309Z,77.25
2018-03-04T08:11:58.611Z,67.20
2018-03-04T08:14:27.915Z,71.05
2018-03-04T08:16:59.466Z,80.47
2018-03-04T08:19:29.504Z,83.83
2018-03-04T08:21:59.557Z,73.40
2018-03-04T08:24:40.138Z,63.58
2018-03-04T08:27:27.123Z,66.15
2018-03-04T08:29:57.211Z,69.67
2018-03-04T08:32:28.463Z,66.03
2018-03-04T08:34:57.773Z,71.62
2018-03-04T08:37:27.037Z,72.85
2018-03-04T08:39:59.112Z,73.82
2018-03-04T08:42:28.412Z,78.80
2018-03-04T08:44:57.874Z,72.45
2018-03-04T08:47:27.268Z,69.53
2018-03-04T08:49:57.338Z,74.13
2018-03-04T08:52:27.281Z,79.97
2018-03-04T08:54:56.599Z,75.53
2018-03-04T08:57:26.185Z,74.90
2018-03-04T08:59:55.442Z,60.97
2018-03-04T09:02:24.742Z,61.17
2018-03-04T09:04:54.095Z,72.57
2018-03-04T09:07:23.382Z,65.37
2018-03-04T09:09:52.634Z,68.13
2018-03-04T09:12:21.953Z,57.37
2018-03-04T09:14:51.266Z,66.23
2018-03-04T09:17:20.532Z,65.37
2018-03-04T09:19:49.900Z,64.70
2018-03-04T09:22:20.818Z,66.43
2018-03-04T09:24:50.927Z,70.50
2018-03-04T09:27:20.259Z,65.40
2018-03-04T09:29:49.558Z,64.93
2018-03-04T09:32:19.069Z,76.63
2018-03-04T09:34:48.331Z,61.93
2018-03-04T09:37:18.663Z,67.10
2018-03-04T09:39:55.691Z,69.13
2018-03-04T09:42:25.057Z,67.00
2018-03-04T09:44:55.252Z,68.10
2018-03-04T09:47:25.419Z,71.63
2018-03-04T09:49:54.715Z,62.13
2018-03-04T09:52:23.995Z,67.80
2018-03-04T09:54:53.434Z,71.13
2018-03-04T09:57:24.032Z,69.63
2018-03-04T09:59:54.544Z,77.27
2018-03-04T10:02:23.929Z,69.07
2018-03-04T10:04:53.294Z,68.87
2018-03-04T10:07:23.956Z,68.33
2018-03-04T10:09:53.204Z,77.53
2018-03-04T10:12:22.475Z,72.33
2018-03-04T10:14:51.813Z,70.17
2018-03-04T10:17:21.533Z,64.40
2018-03-04T10:19:58.181Z,64.43
2018-03-04T10:22:29.852Z,60.67
2018-03-04T10:24:59.150Z,65.50
2018-03-04T10:27:28.444Z,64.70
2018-03-04T10:30:00.281Z,63.00
2018-03-04T10:32:29.786Z,60.03
2018-03-04T10:34:59.376Z,67.80
2018-03-04T10:37:28.667Z,59.83
2018-03-04T10:39:58.203Z,58.87
2018-03-04T10:42:27.829Z,59.20
2018-03-04T10:44:57.096Z,64.07
2018-03-04T10:47:26.348Z,62.30
2018-03-04T10:50:04.588Z,58.60
2018-03-04T10:52:37.257Z,61.90
2018-03-04T10:55:07.532Z,59.20
2018-03-04T10:57:40.153Z,62.40
2018-03-04T11:00:09.622Z,58.20
2018-03-04T11:02:41.692Z,63.87
2018-03-04T11:05:11.508Z,57.63
2018-03-04T11:07:40.822Z,65.47
2018-03-04T11:10:10.475Z,62.93
2018-03-04T11:12:39.956Z,57.57
2018-03-04T11:15:09.373Z,49.23
2018-03-04T11:17:38.747Z,58.67
2018-03-04T11:22:48.419Z,52.10
2018-03-04T11:25:17.715Z,58.60
2018-03-04T11:27:46.993Z,56.97
2018-03-04T11:30:16.326Z,61.23
2018-03-04T11:32:45.627Z,50.90
2018-03-04T11:35:15.175Z,55.80
2018-03-04T11:37:44.492Z,50.40
2018-03-04T11:40:13.767Z,59.90
2018-03-04T11:45:23.984Z,49.70
2018-03-04T11:47:53.308Z,58.53
2018-03-04T11:50:22.572Z,62.47
2018-03-04T11:52:52.356Z,59.50
2018-03-04T12:01:23.063Z,55.57
2018-03-04T12:03:52.796Z,51.83
2018-03-04T12:06:22.139Z,52.90
2018-03-04T12:08:53.049Z,63.43
2018-03-04T12:11:22.316Z,59.43
2018-03-04T12:13:56.186Z,57.43
2018-03-04T12:16:25.551Z,60.10
2018-03-04T12:18:55.124Z,51.33
2018-03-04T12:21:24.527Z,58.70
2018-03-04T12:23:53.834Z,47.70
2018-03-04T12:26:23.139Z,55.90
2018-03-04T12:28:53.181Z,53.60
2018-03-04T12:31:22.807Z,63.80
2018-03-04T12:33:52.080Z,57.17
2018-03-04T12:36:23.172Z,53.13
2018-03-04T12:38:52.431Z,56.47
2018-03-04T12:41:21.740Z,61.10
2018-03-04T12:43:51.036Z,57.17
2018-03-04T12:46:20.382Z,62.93
2018-03-04T12:48:50.546Z,61.13
2018-03-04T12:51:19.865Z,57.00
2018-03-04T12:53:49.137Z,52.40
2018-03-04T12:56:19.226Z,54.67
2018-03-04T12:58:48.508Z,50.83
2018-03-04T13:01:17.825Z,50.17
2018-03-04T13:03:47.108Z,51.97
2018-03-04T13:06:16.390Z,52.10
2018-03-04T13:08:45.691Z,51.63
2018-03-04T13:11:15.006Z,53.33
2018-03-04T13:13:44.674Z,53.97
2018-03-04T13:16:14.057Z,53.83
2018-03-04T13:18:43.331Z,52.80
2018-03-04T13:21:12.647Z,49.80
2018-03-04T13:23:41.957Z,46.00
2018-03-04T13:26:11.720Z,56.70
2018-03-04T13:28:41.090Z,57.27
2018-03-04T13:31:10.500Z,49.60
2018-03-04T13:33:39.830Z,59.03
2018-03-04T13:36:09.151Z,43.53
2018-03-04T13:38:38.450Z,50.70
2018-03-04T13:41:07.785Z,50.90
2018-03-04T13:43:37.096Z,39.83
2018-03-04T13:46:06.399Z,45.40
2018-03-04T13:48:35.667Z,45.90
2018-03-04T13:51:05.002Z,44.20
2018-03-04T13:53:34.291Z,41.23
2018-03-04T13:56:03.585Z,37.50
2018-03-04T13:58:33.647Z,35.83
2018-03-04T14:01:02.951Z,39.30
2018-03-04T14:03:32.628Z,34.40
2018-03-04T14:06:01.936Z,27.30
2018-03-04T14:08:31.256Z,19.87
2018-03-04T14:11:00.555Z,28.70
2018-03-04T14:13:29.833Z,25.67
2018-03-04T14:15:59.527Z,24.47
2018-03-04T14:18:29.559Z,27.57
2018-03-04T14:20:58.871Z,25.73
2018-03-04T14:23:28.212Z,32.13
2018-03-04T14:25:57.547Z,24.27
2018-03-04T14:28:26.863Z,33.47
2018-03-04T14:30:56.457Z,29.90
2018-03-04T14:33:25.752Z,29.77
2018-03-04T14:35:55.015Z,26.30
2018-03-04T14:38:24.689Z,32.70
2018-03-04T14:40:53.952Z,32.03
2018-03-04T14:43:23.240Z,34.37
2018-03-04T14:45:52.543Z,24.60
2018-03-04T14:48:21.811Z,32.50
2018-03-04T14:50:51.144Z,34.10
2018-03-04T14:53:20.445Z,29.97
2018-03-04T14:55:49.787Z,33.67
2018-03-04T14:58:21.032Z,35.07
2018-03-04T15:00:50.626Z,32.17
2018-03-04T15:03:19.931Z,30.37
2018-03-04T15:05:49.203Z,34.27
2018-03-04T15:08:18.564Z,43.50
2018-03-04T15:10:48.192Z,40.83
2018-03-04T15:13:19.460Z,40.23
2018-03-04T15:15:48.893Z,35.67
2018-03-04T15:18:18.292Z,34.87
2018-03-04T15:20:48.328Z,37.13
2018-03-04T15:23:17.639Z,37.03
2018-03-04T15:25:46.983Z,35.57
2018-03-04T15:28:16.275Z,36.17
2018-03-04T15:30:45.600Z,40.10
2018-03-04T15:33:14.860Z,44.97
2018-03-04T15:35:44.548Z,46.70
2018-03-04T15:38:13.914Z,37.80
2018-03-04T15:40:43.465Z,42.63
2018-03-04T15:43:13.765Z,34.00
2018-03-04T15:45:44.027Z,43.20
2018-03-04T15:48:13.331Z,49.43
2018-03-04T15:50:43.643Z,41.77
2018-03-04T15:53:13.035Z,39.67
2018-03-04T15:55:44.916Z,38.30
2018-03-04T15:58:14.241Z,40.73
2018-03-04T16:00:44.520Z,40.03
2018-03-04T16:03:15.579Z,32.67
2018-03-04T16:05:44.870Z,41.70
2018-03-04T16:08:14.145Z,39.07
2018-03-04T16:10:43.551Z,49.03
2018-03-04T16:13:12.879Z,48.03
2018-03-04T16:15:42.546Z,48.07
2018-03-04T16:18:12.177Z,44.40
2018-03-04T16:20:41.505Z,41.07
2018-03-04T16:23:10.828Z,41.87
2018-03-04T16:25:40.143Z,40.10
2018-03-04T16:28:09.399Z,49.20
2018-03-04T16:30:38.704Z,41.87
2018-03-04T16:33:08.088Z,48.73
2018-03-04T16:35:37.383Z,42.10
2018-03-04T16:38:06.658Z,45.70
2018-03-04T16:40:35.988Z,40.17
2018-03-04T16:43:05.247Z,43.53
2018-03-04T16:45:34.547Z,49.03
2018-03-04T16:48:04.832Z,48.83
2018-03-04T16:50:34.118Z,44.00
2018-03-04T16:53:03.390Z,48.90
2018-03-04T16:55:32.719Z,43.80
2018-03-04T16:58:01.963Z,40.63
2018-03-04T17:00:31.713Z,49.07
2018-03-04T17:03:01.009Z,44.27
2018-03-04T17:05:30.849Z,41.37
2018-03-04T17:08:00.255Z,47.50
2018-03-04T17:10:29.540Z,36.90
2018-03-04T17:12:59.349Z,50.00
2018-03-04T17:15:30.031Z,45.50
2018-03-04T17:18:00.026Z,43.30
2018-03-04T17:20:30.244Z,51.13
2018-03-04T17:22:59.527Z,44.53
2018-03-04T17:25:32.707Z,47.90
2018-03-04T17:28:02.312Z,49.03
2018-03-04T17:30:31.563Z,52.27
2018-03-04T17:33:00.847Z,50.33
2018-03-04T17:35:30.151Z,49.00
2018-03-04T17:38:00.216Z,46.00
2018-03-04T17:40:29.586Z,44.20
2018-03-04T17:42:58.995Z,45.77
2018-03-04T17:45:28.269Z,42.50
2018-03-04T17:47:57.540Z,40.40
2018-03-04T17:50:28.884Z,47.07
2018-03-04T17:52:58.212Z,45.67
2018-03-04T17:55:27.490Z,45.80
2018-03-04T17:58:00.088Z,48.07
2018-03-04T18:00:29.363Z,41.53
2018-03-04T18:02:59.409Z,46.83
2018-03-04T18:05:30.444Z,44.70
2018-03-04T18:08:00.168Z,43.73
2018-03-04T18:10:30.438Z,44.63
2018-03-04T18:12:59.718Z,52.23
2018-03-04T18:15:34.800Z,47.27
2018-03-04T18:18:05.135Z,60.08
2018-03-04T18:20:38.990Z,46.53
2018-03-04T18:23:08.315Z,51.83
2018-03-04T18:25:37.908Z,47.60
2018-03-04T18:28:07.957Z,52.73
2018-03-04T18:30:38.172Z,47.17
2018-03-04T18:33:07.497Z,44.90
2018-03-04T18:35:36.792Z,45.67
2018-03-04T18:38:06.182Z,40.63
2018-03-04T18:40:37.383Z,40.00
2018-03-04T18:43:07.507Z,50.30
2018-03-04T18:45:38.328Z,45.47
2018-03-04T18:48:08.528Z,43.07
2018-03-04T18:50:38.191Z,51.03
2018-03-04T18:53:07.468Z,41.53
2018-03-04T18:55:37.925Z,43.37
2018-03-04T18:58:07.576Z,47.60
2018-03-04T19:00:36.872Z,42.00
2018-03-04T19:03:06.138Z,48.23
2018-03-04T19:05:35.492Z,44.83
2018-03-04T19:08:05.454Z,50.43
2018-03-04T19:10:37.757Z,50.27
2018-03-04T19:13:08.062Z,47.10
2018-03-04T19:15:37.921Z,40.30
2018-03-04T19:18:07.368Z,49.97
2018-03-04T19:20:39.059Z,47.97
2018-03-04T19:23:08.760Z,48.13
2018-03-04T19:25:38.024Z,43.53
2018-03-04T19:28:08.217Z,45.23
2018-03-04T19:30:38.500Z,52.30
2018-03-04T19:33:09.550Z,50.80
2018-03-04T19:35:38.955Z,52.00
2018-03-04T19:38:08.343Z,48.27
2018-03-04T19:40:40.951Z,42.83
2018-03-04T19:43:10.303Z,42.17
2018-03-04T19:45:40.465Z,53.17
2018-03-04T19:48:09.781Z,44.40
2018-03-04T19:50:39.062Z,40.10
2018-03-04T19:53:09.520Z,44.17
2018-03-04T19:55:38.897Z,43.03
2018-03-04T19:58:08.206Z,38.37
2018-03-04T20:00:38.241Z,41.47
2018-03-04T20:03:07.648Z,40.17
2018-03-04T20:05:36.987Z,55.03
2018-03-04T20:08:09.406Z,36.40
2018-03-04T20:10:39.188Z,38.37
2018-03-04T20:13:09.343Z,42.80
2018-03-04T20:15:38.995Z,36.33
2018-03-04T20:18:09.238Z,35.23
2018-03-04T20:20:39.686Z,36.23
2018-03-04T20:23:09.221Z,30.43
2018-03-04T20:25:40.236Z,38.53
2018-03-04T20:28:09.754Z,36.60
2018-03-04T20:30:39.032Z,42.10
2018-03-04T20:33:10.019Z,41.03
2018-03-04T20:35:39.367Z,39.73
2018-03-04T20:38:09.699Z,40.20
2018-03-04T20:40:39.003Z,41.37
2018-03-04T20:43:08.832Z,33.40
2018-03-04T20:45:39.048Z,36.30
2018-03-04T20:51:11.528Z,26.33
2018-03-04T20:53:40.912Z,39.60
2018-03-04T20:56:10.227Z,29.87
2018-03-04T20:58:39.938Z,32.77
2018-03-04T21:01:09.222Z,40.90
2018-03-04T21:03:40.823Z,37.07
2018-03-04T21:06:10.372Z,38.27
2018-03-04T21:08:39.627Z,40.17
2018-03-04T21:11:10.646Z,33.40
2018-03-04T21:13:40.168Z,33.40
2018-03-04T21:16:09.461Z,36.87
2018-03-04T21:18:38.747Z,36.77
2018-03-04T21:21:08.473Z,27.00
2018-03-04T21:23:38.026Z,32.00
2018-03-04T21:26:08.397Z,32.90
2018-03-04T21:28:37.772Z,32.73
2018-03-04T21:31:08.838Z,29.53
2018-03-04T21:33:39.183Z,27.70
2018-03-04T21:36:10.145Z,24.90
2018-03-04T21:38:39.730Z,35.23
2018-03-04T21:41:08.992Z,34.73
2018-03-04T21:43:38.324Z,25.67
2018-03-04T21:46:08.732Z,34.37
2018-03-04T21:48:38.577Z,31.90
2018-03-04T21:51:09.248Z,24.73
2018-03-04T21:53:38.712Z,29.07
2018-03-04T21:56:09.085Z,23.07
2018-03-04T21:58:40.243Z,20.93
2018-03-04T22:01:09.525Z,25.13
2018-03-04T22:03:46.504Z,29.67
2018-03-04T22:06:21.843Z,25.13
2018-03-04T22:08:56.783Z,23.67
2018-03-04T22:11:31.992Z,26.50
2018-03-04T22:14:03.252Z,27.00
2018-03-04T22:16:34.683Z,28.10
2018-03-04T22:19:04.163Z,25.90
2018-03-04T22:21:34.981Z,23.37
2018-03-04T22:24:08.052Z,29.00
2018-03-04T22:26:38.511Z,34.40
2018-03-04T22:29:08.634Z,32.93
2018-03-04T22:31:38.139Z,26.03
2018-03-04T22:34:09.695Z,28.90
2018-03-04T22:36:39.015Z,30.93
2018-03-04T22:39:10.191Z,27.77
2018-03-04T22:41:39.521Z,28.10
2018-03-04T22:44:08.805Z,26.43
2018-03-04T22:46:40.111Z,27.77
2018-03-04T22:49:09.883Z,26.17
2018-03-04T22:51:39.347Z,32.23
2018-03-04T22:54:09.789Z,30.17
2018-03-04T22:56:39.468Z,30.20
2018-03-04T22:59:08.837Z,28.63
2018-03-04T23:07:35.174Z,29.73
2018-03-04T23:10:09.687Z,29.17
2018-03-04T23:12:39.538Z,28.03
2018-03-04T23:18:30.869Z,30.27
2018-03-04T23:24:38.539Z,36.63
2018-03-04T23:30:25.814Z,35.23
2018-03-04T23:33:11.005Z,27.47
2018-03-04T23:35:40.497Z,33.73
2018-03-04T23:38:10.965Z,30.33
2018-03-04T23:40:40.589Z,28.80
2018-03-04T23:43:10.896Z,28.37
2018-03-04T23:46:10.211Z,26.87
2018-03-04T23:48:39.600Z,28.70
2018-03-04T23:51:15.281Z,32.73
2018-03-04T23:53:44.760Z,30.27
2018-03-04T23:59:36.135Z,30.20
